createdAt,value
2022-08-04T00:00:10.396Z,1.77
2022-08-04T00:03:05.482Z,1.70
2022-08-04T00:06:07.911Z,2.13
2022-08-04T00:08:42.266Z,1.80
2022-08-04T00:11:15.202Z,2.23
2022-08-04T00:14:02.379Z,1.90
2022-08-04T00:16:38.455Z,2.10
2022-08-04T00:19:34.050Z,1.80
2022-08-04T00:22:03.201Z,1.80
2022-08-04T00:24:33.775Z,1.88
2022-08-04T00:27:03.367Z,1.90
2022-08-04T00:29:31.512Z,1.90
2022-08-04T00:31:58.314Z,1.67
2022-08-04T00:34:27.712Z,1.70
2022-08-04T00:36:55.374Z,1.63
2022-08-04T00:39:22.997Z,1.90
2022-08-04T00:42:27.658Z,1.95
2022-08-04T00:45:00.745Z,1.77
2022-08-04T00:47:34.492Z,1.77
2022-08-04T00:50:04.333Z,1.50
2022-08-04T00:52:55.636Z,2.10
2022-08-04T00:56:10.664Z,1.83
2022-08-04T00:59:00.612Z,1.90
2022-08-04T01:01:39.183Z,1.90
2022-08-04T01:04:22.145Z,1.80
2022-08-04T01:07:10.921Z,1.83
2022-08-04T01:09:49.263Z,1.70
2022-08-04T01:12:37.994Z,1.58
2022-08-04T01:15:24.292Z,1.50
2022-08-04T01:18:06.616Z,1.70
2022-08-04T01:20:54.853Z,1.55
2022-08-04T01:23:45.732Z,1.73
2022-08-04T01:26:42.536Z,1.85
2022-08-04T01:29:22.656Z,1.40
2022-08-04T01:32:03.850Z,1.90
2022-08-04T01:34:51.164Z,1.90
2022-08-04T01:37:23.769Z,2.05
2022-08-04T01:40:04.980Z,1.70
2022-08-04T01:42:33.567Z,1.63
2022-08-04T01:45:05.950Z,1.63
2022-08-04T01:47:35.737Z,2.10
2022-08-04T01:50:08.484Z,1.77
2022-08-04T01:52:36.754Z,1.80
2022-08-04T01:55:05.484Z,1.88
2022-08-04T01:57:38.056Z,2.10
2022-08-04T02:00:07.012Z,1.67
2022-08-04T02:02:35.490Z,1.70
2022-08-04T02:05:02.362Z,1.80
2022-08-04T02:08:03.886Z,1.55
2022-08-04T02:10:42.670Z,1.77
2022-08-04T02:13:16.952Z,1.40
2022-08-04T02:16:03.777Z,1.83
2022-08-04T02:18:45.918Z,1.70
2022-08-04T02:21:14.173Z,1.48
2022-08-04T02:23:42.659Z,1.50
2022-08-04T02:26:22.487Z,1.63
2022-08-04T02:28:58.972Z,1.67
2022-08-04T02:31:33.638Z,1.90
2022-08-04T02:34:09.320Z,1.63
2022-08-04T02:36:37.970Z,1.47
2022-08-04T02:39:06.443Z,1.63
2022-08-04T02:41:33.603Z,1.60
2022-08-04T02:44:01.950Z,1.85
2022-08-04T02:46:29.308Z,1.90
2022-08-04T02:48:56.312Z,1.70
2022-08-04T02:51:26.472Z,1.67
2022-08-04T02:53:55.824Z,1.83
2022-08-04T02:56:23.715Z,1.87
2022-08-04T02:58:53.630Z,1.40
2022-08-04T03:01:21.938Z,1.67
2022-08-04T03:04:26.255Z,1.98
2022-08-04T03:07:24.138Z,1.50
2022-08-04T03:10:09.291Z,1.35
2022-08-04T03:12:58.745Z,1.53
2022-08-04T03:15:50.134Z,1.60
2022-08-04T03:18:45.666Z,1.60
2022-08-04T03:21:27.519Z,1.30
2022-08-04T03:24:20.012Z,1.40
2022-08-04T03:26:55.329Z,1.50
2022-08-04T03:29:35.196Z,1.40
2022-08-04T03:32:34.875Z,1.70
2022-08-04T03:35:10.643Z,1.60
2022-08-04T03:38:18.180Z,1.70
2022-08-04T03:41:04.615Z,1.60
2022-08-04T03:43:59.322Z,1.50
2022-08-04T03:46:31.962Z,1.70
2022-08-04T03:49:10.772Z,1.55
2022-08-04T03:52:16.340Z,1.70
2022-08-04T03:54:50.510Z,1.27
2022-08-04T03:57:42.979Z,1.83
2022-08-04T04:00:21.191Z,1.53
2022-08-04T04:02:54.511Z,1.80
2022-08-04T04:05:29.885Z,1.52
2022-08-04T04:08:20.875Z,1.70
2022-08-04T04:11:22.136Z,1.50
2022-08-04T04:14:01.026Z,1.63
2022-08-04T04:16:59.839Z,1.50
2022-08-04T04:20:11.871Z,1.50
2022-08-04T04:22:44.648Z,1.70
2022-08-04T04:25:36.118Z,1.53
2022-08-04T04:28:43.608Z,1.30
2022-08-04T04:31:27.784Z,1.30
2022-08-04T04:34:14.685Z,1.48
2022-08-04T04:37:16.969Z,1.60
2022-08-04T04:39:49.772Z,1.70
2022-08-04T04:42:21.875Z,1.43
2022-08-04T04:45:10.624Z,1.55
2022-08-04T04:48:08.164Z,1.50
2022-08-04T04:51:06.282Z,1.53
2022-08-04T04:53:43.734Z,1.65
2022-08-04T04:56:37.283Z,1.83
2022-08-04T04:59:04.237Z,1.60
2022-08-04T05:01:58.107Z,1.50
2022-08-04T05:04:43.466Z,1.37
2022-08-04T05:07:38.605Z,1.75
2022-08-04T05:10:35.173Z,1.80
2022-08-04T05:14:38.230Z,2.00
2022-08-04T05:16:21.625Z,1.70
2022-08-04T05:19:11.042Z,1.57
2022-08-04T05:21:49.989Z,1.77
2022-08-04T05:24:18.863Z,1.43
2022-08-04T05:26:50.711Z,1.60
2022-08-04T05:29:30.959Z,1.97
2022-08-04T05:31:59.788Z,1.52
2022-08-04T05:34:32.439Z,1.90
2022-08-04T05:37:00.430Z,1.40
2022-08-04T05:39:34.079Z,1.75
2022-08-04T05:42:04.411Z,1.67
2022-08-04T05:44:32.304Z,1.33
2022-08-04T05:46:59.637Z,1.47
2022-08-04T05:49:27.725Z,1.88
2022-08-04T05:51:56.608Z,1.40
2022-08-04T05:54:23.523Z,1.57
2022-08-04T05:56:50.929Z,1.70
2022-08-04T05:59:17.938Z,1.40
2022-08-04T06:01:55.579Z,1.57
2022-08-04T06:04:25.247Z,1.70
2022-08-04T06:06:52.116Z,2.00
2022-08-04T06:09:20.178Z,1.70
2022-08-04T06:12:03.897Z,1.80
2022-08-04T06:15:00.067Z,1.77
2022-08-04T06:19:10.078Z,1.77
2022-08-04T06:20:22.907Z,1.67
2022-08-04T06:22:52.876Z,1.73
2022-08-04T06:25:23.099Z,1.47
2022-08-04T06:27:50.149Z,1.80
2022-08-04T06:30:19.578Z,1.65
2022-08-04T06:33:04.333Z,1.80
2022-08-04T06:35:32.178Z,1.90
2022-08-04T06:38:00.971Z,1.80
2022-08-04T06:40:30.052Z,2.10
2022-08-04T06:43:02.330Z,1.50
2022-08-04T06:45:30.192Z,1.70
2022-08-04T06:47:58.434Z,1.83
2022-08-04T06:51:32.148Z,1.75
2022-08-04T06:53:13.573Z,1.80
2022-08-04T06:55:41.382Z,1.75
2022-08-04T06:58:08.542Z,1.95
2022-08-04T07:00:36.252Z,1.67
2022-08-04T07:03:04.640Z,1.70
2022-08-04T07:05:31.597Z,1.55
2022-08-04T07:07:59.111Z,2.10
2022-08-04T07:10:49.185Z,1.90
2022-08-04T07:13:17.959Z,1.73
2022-08-04T07:15:47.034Z,1.80
2022-08-04T07:18:15.395Z,1.83
2022-08-04T07:20:45.890Z,1.70
2022-08-04T07:23:17.489Z,2.00
2022-08-04T07:26:00.127Z,1.73
2022-08-04T07:28:31.899Z,1.73
2022-08-04T07:30:58.784Z,1.87
2022-08-04T07:33:26.100Z,1.77
2022-08-04T07:36:10.067Z,1.83
2022-08-04T07:38:46.964Z,2.00
2022-08-04T07:41:38.268Z,2.00
2022-08-04T07:44:05.351Z,2.08
2022-08-04T07:46:32.371Z,1.85
2022-08-04T07:49:00.989Z,2.22
2022-08-04T07:51:30.730Z,2.25
2022-08-04T07:53:57.841Z,2.22
2022-08-04T07:56:25.835Z,2.85
2022-08-04T07:58:54.174Z,2.30
2022-08-04T08:01:22.886Z,1.90
2022-08-04T08:03:51.666Z,2.28
2022-08-04T08:06:30.852Z,2.20
2022-08-04T08:09:02.082Z,2.55
2022-08-04T08:12:37.745Z,2.28
2022-08-04T08:14:30.541Z,2.30
2022-08-04T08:17:00.157Z,2.60
2022-08-04T08:19:27.007Z,2.42
2022-08-04T08:21:59.474Z,2.47
2022-08-04T08:24:30.973Z,2.33
2022-08-04T08:26:58.598Z,2.60
2022-08-04T08:29:26.019Z,2.45
2022-08-04T08:31:57.072Z,2.60
2022-08-04T08:34:47.305Z,2.65
2022-08-04T08:37:20.442Z,2.45
2022-08-04T08:40:08.008Z,2.67
2022-08-04T08:42:46.357Z,2.40
2022-08-04T08:45:34.427Z,2.20
2022-08-04T08:48:34.864Z,2.60
2022-08-04T08:51:24.923Z,2.25
2022-08-04T08:54:27.321Z,2.50
2022-08-04T08:57:18.367Z,2.42
2022-08-04T09:00:05.457Z,2.30
2022-08-04T09:03:04.042Z,2.10
2022-08-04T09:05:52.135Z,1.98
2022-08-04T09:08:52.666Z,2.35
2022-08-04T09:11:22.414Z,2.25
2022-08-04T09:13:57.596Z,2.38
2022-08-04T09:17:02.839Z,2.70
2022-08-04T09:19:43.069Z,2.17
2022-08-04T09:22:21.264Z,2.40
2022-08-04T09:25:05.461Z,2.00
2022-08-04T09:27:47.345Z,2.20
2022-08-04T09:30:17.727Z,2.05
2022-08-04T09:33:22.850Z,2.15
2022-08-04T09:36:25.799Z,2.10
2022-08-04T09:39:21.482Z,2.35
2022-08-04T09:42:10.083Z,2.08
2022-08-04T09:45:06.083Z,1.88
2022-08-04T09:47:40.769Z,2.00
2022-08-04T09:50:28.696Z,2.10
2022-08-04T09:53:32.670Z,2.30
2022-08-04T09:56:10.874Z,1.98
2022-08-04T09:59:10.507Z,2.10
2022-08-04T10:01:37.947Z,2.15
2022-08-04T10:04:09.959Z,2.10
2022-08-04T10:06:43.261Z,1.90
2022-08-04T10:09:43.470Z,2.22
2022-08-04T10:12:23.051Z,2.03
2022-08-04T10:15:03.424Z,2.17
2022-08-04T10:17:51.897Z,2.10
2022-08-04T10:20:34.006Z,1.98
2022-08-04T10:23:28.347Z,2.45
2022-08-04T10:26:19.237Z,2.10
2022-08-04T10:29:18.375Z,2.20
2022-08-04T10:32:04.771Z,2.28
2022-08-04T10:34:39.867Z,2.40
2022-08-04T10:37:59.288Z,2.25
2022-08-04T10:40:45.640Z,2.45
2022-08-04T10:43:52.238Z,2.42
2022-08-04T10:46:31.464Z,2.22
2022-08-04T10:49:08.401Z,2.10
2022-08-04T10:51:59.699Z,2.47
2022-08-04T10:54:31.742Z,2.40
2022-08-04T10:57:01.404Z,2.00
2022-08-04T10:59:52.535Z,2.25
2022-08-04T11:03:04.090Z,2.28
2022-08-04T11:05:52.537Z,2.17
2022-08-04T11:08:31.289Z,2.30
2022-08-04T11:11:13.137Z,2.33
2022-08-04T11:13:57.983Z,2.40
2022-08-04T11:16:30.495Z,2.60
2022-08-04T11:19:18.289Z,2.50
2022-08-04T11:21:50.465Z,2.10
2022-08-04T11:24:42.200Z,2.70
2022-08-04T11:27:33.459Z,1.85
2022-08-04T11:30:10.092Z,3.03
2022-08-04T11:33:01.647Z,2.45
2022-08-04T11:35:32.691Z,2.00
2022-08-04T11:38:07.936Z,1.83
2022-08-04T11:40:48.408Z,1.98
2022-08-04T11:44:10.434Z,2.90
2022-08-04T11:46:40.142Z,2.22
2022-08-04T11:49:15.664Z,2.10
2022-08-04T11:51:43.247Z,2.00
2022-08-04T11:54:11.136Z,2.10
2022-08-04T11:56:44.360Z,2.13
2022-08-04T11:59:11.593Z,2.00
2022-08-04T12:02:21.298Z,1.80
2022-08-04T12:04:59.176Z,2.00
2022-08-04T12:07:41.489Z,1.95
2022-08-04T12:10:41.345Z,2.22
2022-08-04T12:13:36.620Z,1.88
2022-08-04T12:16:22.019Z,2.00
2022-08-04T12:19:19.778Z,2.30
2022-08-04T12:21:56.025Z,1.92
2022-08-04T12:24:43.005Z,2.40
2022-08-04T12:27:39.236Z,1.73
2022-08-04T12:30:58.923Z,2.15
2022-08-04T12:33:01.444Z,1.83
2022-08-04T12:36:10.141Z,1.73
2022-08-04T12:38:29.488Z,2.05
2022-08-04T12:40:57.351Z,1.50
2022-08-04T12:43:38.820Z,2.30
2022-08-04T12:46:10.048Z,2.05
2022-08-04T12:48:38.033Z,2.30
2022-08-04T12:51:06.728Z,1.75
2022-08-04T12:53:53.520Z,2.20
2022-08-04T12:56:25.419Z,2.30
2022-08-04T12:58:53.984Z,1.75
2022-08-04T13:02:08.869Z,2.10
2022-08-04T13:04:13.714Z,1.88
2022-08-04T13:06:41.045Z,1.95
2022-08-04T13:09:17.632Z,2.08
2022-08-04T13:11:50.564Z,1.90
2022-08-04T13:14:27.076Z,2.22
2022-08-04T13:16:58.995Z,1.98
2022-08-04T13:19:26.829Z,2.20
2022-08-04T13:22:03.205Z,2.00
2022-08-04T13:24:32.485Z,2.08
2022-08-04T13:27:05.031Z,2.33
2022-08-04T13:29:58.888Z,2.13
2022-08-04T13:32:27.695Z,2.50
2022-08-04T13:34:55.721Z,2.33
2022-08-04T13:37:26.982Z,1.90
2022-08-04T13:39:56.541Z,2.30
2022-08-04T13:42:24.308Z,1.95
2022-08-04T13:44:56.100Z,1.98
2022-08-04T13:47:30.887Z,2.30
2022-08-04T13:50:17.639Z,2.22
2022-08-04T13:52:46.513Z,2.00
2022-08-04T13:55:32.917Z,2.15
2022-08-04T13:58:07.608Z,2.20
2022-08-04T14:00:55.389Z,2.13
2022-08-04T14:03:31.636Z,1.80
2022-08-04T14:06:18.523Z,2.22
2022-08-04T14:09:00.081Z,1.80
2022-08-04T14:12:10.582Z,1.75
2022-08-04T14:14:32.207Z,1.98
2022-08-04T14:17:32.710Z,1.75
2022-08-04T14:20:01.101Z,1.80
2022-08-04T14:22:34.896Z,2.03
2022-08-04T14:25:16.807Z,1.77
2022-08-04T14:27:57.388Z,1.67
2022-08-04T14:30:31.136Z,1.83
2022-08-04T14:34:03.426Z,1.60
2022-08-04T14:35:59.324Z,1.67
2022-08-04T14:38:26.342Z,2.08
2022-08-04T14:40:54.489Z,1.83
2022-08-04T14:43:22.384Z,2.17
2022-08-04T14:45:55.424Z,1.80
2022-08-04T14:48:23.617Z,1.60
2022-08-04T14:50:50.705Z,1.50
2022-08-04T14:53:19.332Z,1.27
2022-08-04T14:55:47.649Z,1.42
2022-08-04T14:58:43.927Z,1.60
2022-08-04T15:01:12.509Z,1.40
2022-08-04T15:03:57.439Z,1.25
2022-08-04T15:06:26.307Z,1.40
2022-08-04T15:08:55.402Z,1.38
2022-08-04T15:11:22.674Z,1.17
2022-08-04T15:13:55.536Z,1.60
2022-08-04T15:16:23.722Z,1.48
2022-08-04T15:18:51.205Z,1.38
2022-08-04T15:21:22.462Z,1.23
2022-08-04T15:23:50.389Z,1.27
2022-08-04T15:26:43.300Z,1.77
2022-08-04T15:29:27.129Z,1.42
2022-08-04T15:32:07.865Z,1.25
2022-08-04T15:34:46.390Z,1.50
2022-08-04T15:37:34.672Z,1.50
2022-08-04T15:40:08.715Z,1.58
2022-08-04T15:43:00.236Z,1.30
2022-08-04T15:46:32.988Z,1.50
2022-08-04T15:48:19.987Z,1.30
2022-08-04T15:51:15.292Z,2.42
2022-08-04T15:54:03.002Z,1.20
2022-08-04T15:56:30.544Z,1.25
2022-08-04T15:58:57.637Z,1.80
2022-08-04T16:01:24.571Z,2.22
2022-08-04T16:04:00.189Z,1.40
2022-08-04T16:06:29.774Z,1.45
2022-08-04T16:09:04.924Z,1.20
2022-08-04T16:11:33.358Z,1.23
2022-08-04T16:14:03.059Z,1.15
2022-08-04T16:16:31.705Z,1.20
2022-08-04T16:19:05.060Z,1.30
2022-08-04T16:21:33.676Z,1.42
2022-08-04T16:24:17.816Z,1.10
2022-08-04T16:26:57.510Z,1.48
2022-08-04T16:29:27.926Z,1.40
2022-08-04T16:32:13.749Z,1.30
2022-08-04T16:35:17.883Z,1.55
2022-08-04T16:37:45.143Z,1.33
2022-08-04T16:40:39.193Z,1.55
2022-08-04T16:43:10.237Z,1.30
2022-08-04T16:45:54.280Z,1.50
2022-08-04T16:48:22.972Z,1.42
2022-08-04T16:50:57.211Z,1.30
2022-08-04T16:53:52.348Z,1.50
2022-08-04T16:56:15.129Z,1.50
2022-08-04T16:58:50.314Z,1.85
2022-08-04T17:01:32.977Z,1.80
2022-08-04T17:04:05.662Z,1.55
2022-08-04T17:06:37.431Z,1.42
2022-08-04T17:09:16.383Z,1.40
2022-08-04T17:11:44.519Z,1.50
2022-08-04T17:14:11.689Z,1.45
2022-08-04T17:16:40.938Z,1.20
2022-08-04T17:19:24.127Z,1.80
2022-08-04T17:22:05.851Z,1.40
2022-08-04T17:24:38.526Z,1.30
2022-08-04T17:28:10.965Z,1.38
2022-08-04T17:29:52.604Z,2.05
2022-08-04T17:32:21.526Z,1.50
2022-08-04T17:34:50.107Z,1.88
2022-08-04T17:37:52.122Z,1.30
2022-08-04T17:40:22.716Z,1.33
2022-08-04T17:44:04.812Z,1.38
2022-08-04T17:46:28.678Z,1.40
2022-08-04T17:49:17.032Z,1.60
2022-08-04T17:52:04.549Z,1.50
2022-08-04T17:54:40.197Z,1.40
2022-08-04T17:57:19.897Z,1.58
2022-08-04T17:59:59.204Z,1.40
2022-08-04T18:02:34.469Z,1.52
2022-08-04T18:05:06.778Z,1.50
2022-08-04T18:08:38.250Z,1.23
2022-08-04T18:10:52.547Z,1.30
2022-08-04T18:13:24.403Z,1.30
2022-08-04T18:15:59.776Z,1.33
2022-08-04T18:18:26.636Z,1.75
2022-08-04T18:20:53.545Z,1.88
2022-08-04T18:23:20.378Z,1.75
2022-08-04T18:25:59.167Z,1.60
2022-08-04T18:28:28.906Z,1.50
2022-08-04T18:30:57.751Z,1.67
2022-08-04T18:33:39.617Z,1.65
2022-08-04T18:36:34.061Z,1.45
2022-08-04T18:39:12.533Z,1.38
2022-08-04T18:42:01.275Z,1.60
2022-08-04T18:44:29.452Z,1.75
2022-08-04T18:46:57.854Z,1.60
2022-08-04T18:51:01.174Z,1.40
2022-08-04T18:52:31.937Z,1.55
2022-08-04T18:55:01.880Z,1.80
2022-08-04T18:58:00.891Z,1.60
2022-08-04T19:00:17.707Z,1.65
2022-08-04T19:02:47.090Z,1.77
2022-08-04T19:05:19.298Z,1.60
2022-08-04T19:08:11.166Z,1.50
2022-08-04T19:10:34.714Z,1.50
2022-08-04T19:13:02.047Z,1.30
2022-08-04T19:15:33.902Z,1.73
2022-08-04T19:18:01.248Z,1.60
2022-08-04T19:20:28.502Z,1.45
2022-08-04T19:24:29.275Z,1.90
2022-08-04T19:26:01.437Z,1.50
2022-08-04T19:28:35.415Z,1.80
2022-08-04T19:31:07.362Z,1.70
2022-08-04T19:33:58.969Z,1.95
2022-08-04T19:36:27.747Z,1.90
2022-08-04T19:38:57.126Z,1.60
2022-08-04T19:41:26.556Z,1.67
2022-08-04T19:43:54.074Z,1.45
2022-08-04T19:46:21.478Z,1.48
2022-08-04T19:48:59.729Z,1.60
2022-08-04T19:51:28.625Z,1.60
2022-08-04T19:54:04.087Z,1.70
2022-08-04T19:56:40.482Z,1.50
2022-08-04T19:59:11.004Z,1.30
2022-08-04T20:01:44.217Z,1.50
2022-08-04T20:04:11.818Z,1.35
2022-08-04T20:06:40.970Z,1.30
2022-08-04T20:09:26.351Z,1.65
2022-08-04T20:11:56.944Z,1.58
2022-08-04T20:14:31.727Z,1.73
2022-08-04T20:17:10.074Z,1.60
2022-08-04T20:19:39.218Z,1.80
2022-08-04T20:22:50.719Z,1.73
2022-08-04T20:25:01.008Z,1.40
2022-08-04T20:27:59.540Z,1.42
2022-08-04T20:30:28.530Z,1.77
2022-08-04T20:32:55.553Z,1.38
2022-08-04T20:35:26.963Z,1.48
2022-08-04T20:38:00.387Z,1.55
2022-08-04T20:40:29.107Z,1.60
2022-08-04T20:42:57.399Z,1.50
2022-08-04T20:45:55.841Z,1.60
2022-08-04T20:48:17.312Z,1.67
2022-08-04T20:50:47.494Z,1.48
2022-08-04T20:53:16.424Z,1.80
2022-08-04T20:55:55.054Z,1.65
2022-08-04T20:58:41.463Z,1.67
2022-08-04T21:01:08.314Z,1.60
2022-08-04T21:04:00.606Z,1.63
2022-08-04T21:06:27.954Z,1.40
2022-08-04T21:09:01.250Z,1.50
2022-08-04T21:11:44.629Z,1.40
2022-08-04T21:14:14.173Z,1.60
2022-08-04T21:16:55.467Z,1.90
2022-08-04T21:19:27.126Z,1.67
2022-08-04T21:21:54.608Z,1.50
2022-08-04T21:24:26.130Z,1.48
2022-08-04T21:26:56.604Z,1.50
2022-08-04T21:29:34.712Z,1.80
2022-08-04T21:32:05.853Z,1.60
2022-08-04T21:34:39.080Z,1.80
2022-08-04T21:37:09.417Z,1.40
2022-08-04T21:39:50.496Z,1.80
2022-08-04T21:42:29.737Z,1.60
2022-08-04T21:44:57.750Z,1.65
2022-08-04T21:47:24.615Z,1.52
2022-08-04T21:49:56.940Z,1.60
2022-08-04T21:52:24.575Z,1.70
2022-08-04T21:54:54.661Z,1.67
2022-08-04T22:00:18.521Z,1.75
2022-08-04T22:02:47.143Z,1.50
2022-08-04T22:05:20.588Z,1.50
2022-08-04T22:07:50.373Z,1.70
2022-08-04T22:10:18.525Z,1.77
2022-08-04T22:12:58.985Z,1.60
2022-08-04T22:16:04.033Z,1.60
2022-08-04T22:18:14.531Z,1.92
2022-08-04T22:20:43.969Z,1.85
2022-08-04T22:23:16.818Z,1.60
2022-08-04T22:25:55.722Z,1.40
2022-08-04T22:28:25.440Z,1.50
2022-08-04T22:30:55.805Z,1.75
2022-08-04T22:33:22.776Z,1.65
2022-08-04T22:35:50.151Z,1.90
2022-08-04T22:38:31.748Z,1.98
2022-08-04T22:41:14.995Z,1.70
2022-08-04T22:43:42.011Z,1.58
2022-08-04T22:46:12.166Z,1.55
2022-08-04T22:48:39.956Z,1.70
2022-08-04T22:51:10.632Z,1.67
2022-08-04T22:53:41.045Z,1.30
2022-08-04T22:56:10.134Z,1.58
2022-08-04T22:58:45.588Z,1.70
2022-08-04T23:01:23.214Z,1.73
2022-08-04T23:03:55.149Z,1.85
2022-08-04T23:06:24.290Z,1.65
2022-08-04T23:08:52.282Z,1.50
2022-08-04T23:11:21.637Z,1.73
2022-08-04T23:13:49.943Z,1.60
2022-08-04T23:16:19.110Z,1.60
2022-08-04T23:18:48.912Z,1.50
2022-08-04T23:21:16.030Z,1.60
2022-08-04T23:24:00.941Z,1.67
2022-08-04T23:26:29.473Z,1.98
2022-08-04T23:28:56.569Z,1.52
2022-08-04T23:31:24.051Z,1.60
2022-08-04T23:33:52.739Z,1.58
2022-08-04T23:36:29.429Z,1.48
2022-08-04T23:39:01.573Z,1.45
2022-08-04T23:41:53.553Z,1.67
2022-08-04T23:44:25.799Z,1.40
2022-08-04T23:47:04.476Z,1.65
2022-08-04T23:49:44.287Z,1.50
2022-08-04T23:52:28.082Z,1.70
2022-08-04T23:54:59.020Z,1.60
2022-08-04T23:57:31.244Z,1.50
